createdAt,value
2017-10-20T00:00:37.700Z,54.62
2017-10-20T00:01:37.688Z,54.72
2017-10-20T00:02:37.675Z,54.62
2017-10-20T00:03:37.660Z,54.43
2017-10-20T00:04:37.648Z,54.43
2017-10-20T00:05:37.635Z,54.24
2017-10-20T00:06:37.621Z,54.24
2017-10-20T00:07:37.607Z,54.33
2017-10-20T00:08:37.595Z,54.05
2017-10-20T00:09:37.586Z,54.33
2017-10-20T00:10:37.569Z,54.53
2017-10-20T00:11:37.555Z,54.53
2017-10-20T00:12:37.542Z,53.56
2017-10-20T00:13:37.530Z,54.53
2017-10-20T00:14:37.516Z,54.24
2017-10-20T00:15:37.501Z,54.53
2017-10-20T00:16:37.489Z,54.24
2017-10-20T00:17:37.476Z,54.43
2017-10-20T00:18:37.463Z,54.14
2017-10-20T00:19:37.449Z,54.91
2017-10-20T00:20:37.436Z,53.95
2017-10-20T00:21:37.424Z,54.14
2017-10-20T00:22:37.438Z,54.43
2017-10-20T00:23:37.396Z,53.56
2017-10-20T00:24:37.382Z,53.85
2017-10-20T00:25:37.370Z,53.56
2017-10-20T00:26:37.357Z,54.33
2017-10-20T00:27:37.343Z,54.14
2017-10-20T00:28:37.330Z,53.95
2017-10-20T00:29:37.317Z,53.85
2017-10-20T00:30:37.304Z,53.95
2017-10-20T00:31:37.289Z,54.14
2017-10-20T00:32:37.278Z,54.14
2017-10-20T00:33:37.267Z,54.14
2017-10-20T00:34:37.251Z,54.43
2017-10-20T00:35:37.237Z,54.05
2017-10-20T00:36:37.224Z,54.14
2017-10-20T00:37:37.211Z,53.95
2017-10-20T00:38:37.198Z,55.01
2017-10-20T00:39:37.184Z,54.14
2017-10-20T00:40:37.171Z,54.43
2017-10-20T00:41:37.158Z,54.62
2017-10-20T00:42:37.147Z,53.95
2017-10-20T00:43:37.131Z,54.05
2017-10-20T00:44:37.118Z,53.95
2017-10-20T00:45:37.106Z,53.95
2017-10-20T00:46:37.092Z,54.14
2017-10-20T00:47:37.077Z,54.43
2017-10-20T00:48:37.065Z,54.53
2017-10-20T00:49:37.052Z,54.33
2017-10-20T00:50:37.039Z,53.95
2017-10-20T00:51:37.030Z,53.85
2017-10-20T00:52:37.011Z,54.14
2017-10-20T00:53:36.999Z,54.14
2017-10-20T00:54:36.985Z,54.33
2017-10-20T00:55:36.972Z,54.43
2017-10-20T00:56:36.958Z,54.43
2017-10-20T00:57:36.946Z,55.01
2017-10-20T00:58:36.931Z,54.40
2017-10-20T00:59:36.918Z,54.40
2017-10-20T01:00:36.904Z,54.43
2017-10-20T01:01:36.891Z,54.72
2017-10-20T01:02:36.878Z,54.88
2017-10-20T01:03:36.865Z,54.21
2017-10-20T01:04:36.851Z,55.01
2017-10-20T01:05:36.838Z,54.43
2017-10-20T01:06:36.824Z,54.88
2017-10-20T01:07:36.811Z,54.62
2017-10-20T01:08:36.799Z,54.72
2017-10-20T01:09:36.784Z,54.60
2017-10-20T01:10:36.771Z,55.30
2017-10-20T01:11:36.756Z,54.69
2017-10-20T01:12:36.743Z,54.60
2017-10-20T01:13:36.730Z,55.66
2017-10-20T01:14:36.717Z,55.76
2017-10-20T01:15:36.703Z,55.46
2017-10-20T01:16:36.689Z,55.36
2017-10-20T01:17:36.677Z,55.56
2017-10-20T01:18:36.664Z,55.27
2017-10-20T01:19:36.649Z,55.46
2017-10-20T01:20:36.636Z,55.56
2017-10-20T01:21:36.623Z,55.27
2017-10-20T01:22:36.609Z,55.56
2017-10-20T01:23:36.599Z,55.56
2017-10-20T01:24:36.583Z,55.18
2017-10-20T01:25:36.569Z,55.56
2017-10-20T01:26:36.556Z,56.14
2017-10-20T01:27:36.545Z,55.56
2017-10-20T01:28:36.528Z,55.46
2017-10-20T01:29:36.515Z,55.66
2017-10-20T01:30:36.502Z,55.66
2017-10-20T01:31:36.487Z,55.94
2017-10-20T01:32:36.474Z,55.94
2017-10-20T01:33:36.461Z,56.33
2017-10-20T01:34:36.447Z,56.04
2017-10-20T01:35:36.433Z,56.14
2017-10-20T01:36:36.420Z,55.36
2017-10-20T01:37:36.406Z,55.56
2017-10-20T01:38:36.394Z,55.94
2017-10-20T01:39:36.383Z,56.14
2017-10-20T01:40:36.366Z,56.24
2017-10-20T01:41:36.352Z,56.04
2017-10-20T01:42:36.339Z,55.27
2017-10-20T01:43:36.324Z,55.85
2017-10-20T01:44:36.317Z,55.76
2017-10-20T01:45:36.298Z,56.04
2017-10-20T01:46:36.285Z,56.04
2017-10-20T01:47:36.275Z,55.85
2017-10-20T01:48:36.257Z,55.94
2017-10-20T01:49:36.248Z,56.14
2017-10-20T01:50:36.233Z,56.04
2017-10-20T01:51:36.217Z,56.14
2017-10-20T01:52:36.203Z,56.04
2017-10-20T01:53:36.190Z,55.85
2017-10-20T01:54:36.176Z,55.94
2017-10-20T01:55:36.162Z,55.76
2017-10-20T01:56:36.150Z,56.04
2017-10-20T01:57:36.136Z,55.94
2017-10-20T01:58:36.122Z,56.14
2017-10-20T01:59:36.109Z,56.04
2017-10-20T02:00:36.095Z,56.04
2017-10-20T02:01:36.081Z,56.04
2017-10-20T02:02:36.069Z,55.85
2017-10-20T02:03:36.054Z,56.04
2017-10-20T02:04:36.041Z,55.85
2017-10-20T02:05:36.028Z,55.94
2017-10-20T02:06:36.016Z,56.14
2017-10-20T02:07:36.005Z,56.14
2017-10-20T02:08:35.987Z,55.66
2017-10-20T02:09:35.975Z,55.66
2017-10-20T02:10:35.960Z,56.14
2017-10-20T02:11:35.946Z,55.94
2017-10-20T02:12:35.932Z,55.85
2017-10-20T02:13:35.918Z,55.66
2017-10-20T02:14:35.907Z,56.24
2017-10-20T02:15:35.892Z,56.14
2017-10-20T02:16:35.879Z,55.94
2017-10-20T02:17:35.866Z,56.04
2017-10-20T02:18:35.851Z,55.94
2017-10-20T02:19:35.839Z,55.76
2017-10-20T02:20:35.825Z,55.94
2017-10-20T02:21:35.811Z,55.46
2017-10-20T02:22:35.798Z,56.24
2017-10-20T02:23:35.784Z,56.14
2017-10-20T02:24:35.771Z,55.44
2017-10-20T02:25:35.757Z,55.85
2017-10-20T02:26:35.744Z,55.94
2017-10-20T02:27:35.731Z,55.66
2017-10-20T02:28:35.717Z,56.24
2017-10-20T02:29:35.703Z,56.33
2017-10-20T02:30:35.690Z,56.24
2017-10-20T02:31:35.676Z,56.04
2017-10-20T02:32:35.662Z,55.56
2017-10-20T02:33:35.649Z,55.85
2017-10-20T02:34:35.639Z,56.11
2017-10-20T02:35:35.621Z,56.01
2017-10-20T02:36:35.608Z,55.94
2017-10-20T02:37:35.595Z,56.11
2017-10-20T02:38:35.583Z,56.11
2017-10-20T02:39:35.567Z,55.92
2017-10-20T02:40:35.553Z,56.14
2017-10-20T02:41:35.540Z,55.66
2017-10-20T02:42:35.527Z,56.14
2017-10-20T02:43:35.512Z,55.56
2017-10-20T02:44:35.499Z,55.44
2017-10-20T02:45:35.485Z,55.24
2017-10-20T02:46:35.472Z,56.11
2017-10-20T02:47:35.459Z,56.14
2017-10-20T02:48:35.444Z,55.24
2017-10-20T02:49:35.431Z,54.96
2017-10-20T02:50:35.418Z,55.44
2017-10-20T02:51:35.404Z,55.82
2017-10-20T02:52:35.390Z,55.15
2017-10-20T02:53:35.377Z,56.11
2017-10-20T02:54:35.363Z,56.24
2017-10-20T02:55:35.349Z,55.63
2017-10-20T02:56:35.335Z,55.56
2017-10-20T02:57:35.322Z,55.24
2017-10-20T02:58:35.309Z,55.44
2017-10-20T02:59:35.294Z,55.54
2017-10-20T03:00:35.281Z,55.44
2017-10-20T03:01:35.268Z,55.24
2017-10-20T03:02:35.256Z,55.05
2017-10-20T03:03:35.240Z,55.15
2017-10-20T03:04:35.227Z,55.34
2017-10-20T03:05:35.213Z,55.24
2017-10-20T03:06:35.200Z,55.15
2017-10-20T03:07:35.185Z,55.44
2017-10-20T03:08:35.173Z,55.27
2017-10-20T03:09:35.158Z,55.15
2017-10-20T03:10:35.145Z,54.66
2017-10-20T03:11:35.131Z,55.34
2017-10-20T03:12:35.117Z,55.15
2017-10-20T03:13:35.104Z,55.34
2017-10-20T03:14:35.091Z,55.73
2017-10-20T03:15:35.076Z,55.34
2017-10-20T03:16:35.062Z,55.05
2017-10-20T03:17:35.049Z,55.44
2017-10-20T03:18:35.036Z,55.44
2017-10-20T03:19:35.022Z,55.44
2017-10-20T03:20:35.008Z,55.24
2017-10-20T03:21:34.994Z,55.34
2017-10-20T03:22:34.980Z,55.63
2017-10-20T03:23:34.967Z,55.54
2017-10-20T03:24:34.953Z,55.63
2017-10-20T03:25:34.942Z,56.01
2017-10-20T03:26:34.926Z,55.92
2017-10-20T03:27:34.913Z,56.11
2017-10-20T03:28:34.899Z,56.01
2017-10-20T03:29:34.886Z,56.21
2017-10-20T03:30:34.873Z,55.92
2017-10-20T03:31:34.858Z,56.11
2017-10-20T03:32:34.844Z,56.21
2017-10-20T03:33:34.830Z,56.30
2017-10-20T03:34:34.818Z,56.01
2017-10-20T03:35:34.803Z,55.82
2017-10-20T03:36:34.790Z,55.82
2017-10-20T03:37:34.776Z,55.92
2017-10-20T03:38:34.763Z,55.63
2017-10-20T03:39:34.749Z,56.01
2017-10-20T03:40:34.735Z,56.01
2017-10-20T03:41:34.722Z,56.59
2017-10-20T03:42:34.708Z,55.82
2017-10-20T03:43:34.693Z,55.92
2017-10-20T03:44:34.680Z,55.82
2017-10-20T03:45:34.669Z,56.40
2017-10-20T03:46:34.653Z,56.40
2017-10-20T03:47:34.640Z,56.40
2017-10-20T03:48:34.626Z,56.40
2017-10-20T03:49:34.612Z,55.82
2017-10-20T03:50:34.598Z,55.92
2017-10-20T03:51:34.583Z,55.92
2017-10-20T03:52:34.570Z,56.21
2017-10-20T03:53:34.557Z,56.69
2017-10-20T03:54:34.544Z,56.49
2017-10-20T03:55:34.530Z,56.40
2017-10-20T03:56:34.516Z,56.30
2017-10-20T03:57:34.503Z,56.40
2017-10-20T03:58:34.489Z,56.59
2017-10-20T03:59:34.474Z,56.49
2017-10-20T04:00:34.463Z,56.01
2017-10-20T04:01:34.448Z,56.01
2017-10-20T04:02:34.434Z,56.49
2017-10-20T04:03:34.419Z,56.11
2017-10-20T04:04:34.406Z,56.79
2017-10-20T04:05:34.393Z,56.69
2017-10-20T04:06:34.380Z,56.49
2017-10-20T04:07:34.365Z,56.59
2017-10-20T04:08:34.351Z,56.40
2017-10-20T04:09:34.338Z,56.11
2017-10-20T04:10:34.325Z,55.73
2017-10-20T04:11:34.310Z,56.40
2017-10-20T04:12:34.304Z,56.01
2017-10-20T04:13:34.282Z,55.73
2017-10-20T04:14:34.270Z,56.49
2017-10-20T04:15:34.255Z,56.01
2017-10-20T04:16:34.242Z,56.40
2017-10-20T04:17:34.231Z,55.73
2017-10-20T04:18:34.219Z,55.82
2017-10-20T04:19:34.201Z,56.01
2017-10-20T04:20:34.188Z,56.01
2017-10-20T04:21:34.173Z,55.82
2017-10-20T04:22:34.160Z,56.59
2017-10-20T04:23:34.146Z,56.30
2017-10-20T04:24:34.133Z,55.82
2017-10-20T04:25:34.125Z,55.92
2017-10-20T04:26:34.105Z,56.59
2017-10-20T04:27:34.091Z,56.40
2017-10-20T04:28:34.078Z,56.59
2017-10-20T04:29:34.065Z,56.11
2017-10-20T04:30:34.051Z,55.92
2017-10-20T04:31:34.036Z,56.69
2017-10-20T04:32:34.023Z,56.21
2017-10-20T04:33:34.010Z,56.11
2017-10-20T04:34:33.996Z,56.01
2017-10-20T04:35:33.982Z,55.92
2017-10-20T04:36:33.971Z,55.92
2017-10-20T04:37:33.957Z,56.49
2017-10-20T04:38:33.941Z,56.59
2017-10-20T04:39:33.927Z,56.69
2017-10-20T04:40:33.914Z,56.79
2017-10-20T04:41:33.906Z,56.69
2017-10-20T04:42:33.887Z,56.69
2017-10-20T04:43:33.870Z,56.59
2017-10-20T04:44:33.858Z,56.49
2017-10-20T04:45:33.859Z,56.49
2017-10-20T04:46:33.831Z,56.40
2017-10-20T04:47:33.817Z,56.21
2017-10-20T04:48:33.804Z,56.88
2017-10-20T04:49:33.790Z,56.49
2017-10-20T04:50:33.777Z,56.49
2017-10-20T04:51:33.763Z,56.59
2017-10-20T04:52:33.773Z,56.59
2017-10-20T04:53:33.735Z,56.49
2017-10-20T04:54:33.722Z,56.49
2017-10-20T04:55:33.707Z,56.88
2017-10-20T04:56:33.694Z,56.40
2017-10-20T04:57:33.680Z,56.79
2017-10-20T04:58:33.666Z,56.98
2017-10-20T04:59:33.652Z,56.88
2017-10-20T05:00:33.638Z,57.10
2017-10-20T05:01:33.625Z,56.79
2017-10-20T05:02:33.611Z,56.24
2017-10-20T05:03:33.597Z,56.72
2017-10-20T05:04:33.584Z,56.79
2017-10-20T05:05:33.569Z,56.21
2017-10-20T05:06:33.556Z,57.20
2017-10-20T05:07:33.542Z,56.52
2017-10-20T05:08:33.533Z,56.72
2017-10-20T05:09:33.515Z,56.52
2017-10-20T05:10:33.501Z,56.40
2017-10-20T05:11:33.486Z,56.52
2017-10-20T05:12:33.473Z,56.52
2017-10-20T05:13:33.460Z,56.81
2017-10-20T05:14:33.446Z,56.62
2017-10-20T05:15:33.432Z,56.62
2017-10-20T05:16:33.419Z,56.52
2017-10-20T05:17:33.404Z,55.85
2017-10-20T05:18:33.397Z,56.52
2017-10-20T05:19:33.377Z,56.43
2017-10-20T05:20:33.364Z,56.72
2017-10-20T05:21:33.350Z,56.43
2017-10-20T05:22:33.337Z,56.04
2017-10-20T05:23:33.324Z,56.14
2017-10-20T05:24:33.309Z,56.62
2017-10-20T05:25:33.295Z,56.81
2017-10-20T05:26:33.282Z,56.81
2017-10-20T05:27:33.267Z,57.20
2017-10-20T05:28:33.257Z,56.72
2017-10-20T05:29:33.240Z,56.72
2017-10-20T05:30:33.227Z,56.72
2017-10-20T05:31:33.213Z,56.72
2017-10-20T05:32:33.199Z,56.91
2017-10-20T05:33:33.184Z,56.91
2017-10-20T05:34:33.173Z,56.91
2017-10-20T05:35:33.158Z,57.78
2017-10-20T05:36:33.144Z,58.17
2017-10-20T05:37:33.131Z,57.49
2017-10-20T05:38:33.118Z,56.91
2017-10-20T05:39:33.103Z,57.01
2017-10-20T05:40:33.089Z,57.10
2017-10-20T05:41:33.077Z,57.87
2017-10-20T05:42:33.062Z,57.20
2017-10-20T05:43:33.051Z,57.10
2017-10-20T05:44:33.035Z,56.81
2017-10-20T05:45:33.021Z,57.39
2017-10-20T05:46:33.008Z,57.39
2017-10-20T05:47:32.993Z,58.26
2017-10-20T05:48:32.980Z,56.72
2017-10-20T05:49:32.967Z,57.01
2017-10-20T05:50:32.953Z,57.68
2017-10-20T05:51:32.939Z,57.78
2017-10-20T05:52:32.925Z,57.20
2017-10-20T05:53:32.912Z,57.10
2017-10-20T05:54:32.899Z,57.29
2017-10-20T05:55:32.884Z,56.72
2017-10-20T05:56:32.871Z,57.29
2017-10-20T05:57:32.859Z,57.78
2017-10-20T05:58:32.845Z,57.01
2017-10-20T05:59:32.830Z,57.68
2017-10-20T06:00:32.817Z,57.49
2017-10-20T06:01:32.804Z,57.78
2017-10-20T06:02:32.790Z,57.68
2017-10-20T06:03:32.776Z,57.87
2017-10-20T06:04:32.762Z,57.68
2017-10-20T06:05:32.750Z,57.78
2017-10-20T06:06:32.734Z,58.17
2017-10-20T06:07:32.722Z,57.10
2017-10-20T06:08:32.708Z,57.87
2017-10-20T06:09:32.695Z,57.87
2017-10-20T06:10:32.682Z,57.20
2017-10-20T06:11:32.667Z,58.17
2017-10-20T06:12:32.655Z,57.97
2017-10-20T06:13:32.641Z,57.59
2017-10-20T06:14:32.627Z,56.81
2017-10-20T06:15:32.613Z,57.59
2017-10-20T06:16:32.599Z,57.78
2017-10-20T06:17:32.586Z,57.68
2017-10-20T06:18:32.573Z,57.29
2017-10-20T06:19:32.559Z,58.17
2017-10-20T06:20:32.546Z,57.87
2017-10-20T06:21:32.533Z,57.87
2017-10-20T06:22:32.520Z,57.78
2017-10-20T06:23:32.505Z,57.68
2017-10-20T06:24:32.492Z,58.17
2017-10-20T06:25:32.478Z,57.68
2017-10-20T06:26:32.463Z,58.17
2017-10-20T06:27:32.450Z,57.68
2017-10-20T06:28:32.438Z,57.01
2017-10-20T06:29:32.424Z,57.49
2017-10-20T06:30:32.411Z,57.97
2017-10-20T06:31:32.397Z,57.49
2017-10-20T06:32:32.383Z,57.78
2017-10-20T06:33:32.370Z,57.97
2017-10-20T06:34:32.356Z,57.87
2017-10-20T06:35:32.343Z,57.49
2017-10-20T06:36:32.329Z,57.49
2017-10-20T06:37:32.315Z,58.26
2017-10-20T06:38:32.303Z,57.78
2017-10-20T06:39:32.288Z,57.78
2017-10-20T06:40:32.274Z,58.55
2017-10-20T06:41:32.262Z,58.65
2017-10-20T06:42:32.248Z,58.17
2017-10-20T06:43:32.234Z,58.75
2017-10-20T06:44:32.220Z,58.65
2017-10-20T06:45:32.207Z,58.36
2017-10-20T06:46:32.194Z,59.23
2017-10-20T06:47:32.179Z,58.07
2017-10-20T06:48:32.165Z,58.36
2017-10-20T06:49:32.153Z,58.94
2017-10-20T06:50:32.139Z,58.45
2017-10-20T06:51:32.125Z,58.75
2017-10-20T06:52:32.112Z,58.17
2017-10-20T06:53:32.099Z,58.55
2017-10-20T06:54:32.085Z,58.26
2017-10-20T06:55:32.071Z,58.84
2017-10-20T06:56:32.057Z,59.13
2017-10-20T06:57:32.043Z,58.55
2017-10-20T06:58:32.037Z,58.65
2017-10-20T06:59:32.016Z,58.45
2017-10-20T07:00:32.003Z,58.75
2017-10-20T07:01:31.993Z,58.75
2017-10-20T07:02:31.976Z,59.23
2017-10-20T07:03:31.961Z,59.23
2017-10-20T07:04:31.948Z,59.25
2017-10-20T07:05:31.935Z,59.32
2017-10-20T07:06:31.921Z,58.94
2017-10-20T07:07:31.914Z,58.75
2017-10-20T07:08:31.894Z,59.03
2017-10-20T07:09:31.880Z,59.32
2017-10-20T07:10:31.867Z,58.94
2017-10-20T07:11:31.852Z,58.94
2017-10-20T07:12:31.839Z,59.23
2017-10-20T07:13:31.826Z,59.52
2017-10-20T07:14:31.814Z,58.94
2017-10-20T07:15:31.798Z,59.90
2017-10-20T07:16:31.785Z,59.13
2017-10-20T07:17:31.778Z,58.94
2017-10-20T07:18:31.758Z,58.94
2017-10-20T07:19:31.744Z,58.75
2017-10-20T07:20:31.730Z,59.03
2017-10-20T07:21:31.721Z,59.03
2017-10-20T07:22:31.703Z,59.32
2017-10-20T07:23:31.689Z,59.03
2017-10-20T07:24:31.676Z,59.23
2017-10-20T07:25:31.663Z,59.71
2017-10-20T07:26:31.650Z,59.61
2017-10-20T07:27:31.635Z,59.71
2017-10-20T07:28:31.625Z,59.13
2017-10-20T07:29:31.608Z,58.94
2017-10-20T07:30:31.596Z,58.75
2017-10-20T07:31:31.580Z,59.03
2017-10-20T07:32:31.567Z,59.42
2017-10-20T07:33:31.554Z,58.94
2017-10-20T07:34:31.541Z,59.71
2017-10-20T07:35:31.526Z,59.80
2017-10-20T07:36:31.513Z,59.80
2017-10-20T07:37:31.499Z,58.45
2017-10-20T07:38:31.485Z,59.03
2017-10-20T07:39:31.472Z,59.55
2017-10-20T07:40:31.459Z,59.32
2017-10-20T07:41:31.444Z,59.32
2017-10-20T07:42:31.433Z,59.32
2017-10-20T07:43:31.418Z,59.83
2017-10-20T07:44:31.419Z,58.75
2017-10-20T07:45:31.391Z,59.35
2017-10-20T07:46:31.378Z,59.03
2017-10-20T07:47:31.363Z,59.93
2017-10-20T07:48:31.350Z,59.16
2017-10-20T07:49:31.336Z,58.58
2017-10-20T07:50:31.323Z,58.87
2017-10-20T07:51:31.310Z,59.25
2017-10-20T07:52:31.307Z,58.94
2017-10-20T07:53:31.283Z,59.06
2017-10-20T07:54:31.270Z,59.35
2017-10-20T07:55:31.258Z,59.16
2017-10-20T07:56:31.243Z,59.45
2017-10-20T07:57:31.229Z,59.06
2017-10-20T07:58:31.216Z,58.94
2017-10-20T07:59:31.201Z,58.87
2017-10-20T08:00:31.189Z,58.84
2017-10-20T08:01:31.175Z,58.26
2017-10-20T08:02:31.162Z,58.55
2017-10-20T08:03:31.147Z,58.29
2017-10-20T08:04:31.134Z,58.39
2017-10-20T08:05:31.121Z,58.19
2017-10-20T08:06:31.108Z,58.19
2017-10-20T08:07:31.092Z,58.48
2017-10-20T08:08:31.079Z,58.58
2017-10-20T08:09:31.071Z,58.48
2017-10-20T08:10:31.054Z,58.17
2017-10-20T08:11:31.045Z,58.58
2017-10-20T08:12:31.025Z,58.65
2017-10-20T08:13:31.013Z,58.39
2017-10-20T08:14:31.000Z,58.19
2017-10-20T08:15:30.985Z,58.58
2017-10-20T08:16:30.973Z,58.29
2017-10-20T08:17:30.960Z,58.68
2017-10-20T08:18:30.953Z,58.19
2017-10-20T08:19:30.982Z,58.48
2017-10-20T08:20:30.919Z,58.19
2017-10-20T08:21:30.907Z,58.19
2017-10-20T08:22:30.892Z,58.29
2017-10-20T08:23:30.878Z,58.39
2017-10-20T08:24:30.865Z,58.77
2017-10-20T08:25:30.852Z,58.48
2017-10-20T08:26:30.839Z,58.48
2017-10-20T08:27:30.825Z,58.68
2017-10-20T08:28:30.819Z,58.19
2017-10-20T08:29:30.799Z,58.68
2017-10-20T08:30:30.784Z,58.00
2017-10-20T08:31:30.772Z,57.71
2017-10-20T08:32:30.758Z,58.29
2017-10-20T08:33:30.745Z,57.81
2017-10-20T08:34:30.732Z,57.93
2017-10-20T08:35:30.717Z,57.35
2017-10-20T08:36:30.714Z,57.74
2017-10-20T08:37:30.691Z,56.77
2017-10-20T08:38:30.678Z,56.48
2017-10-20T08:39:30.715Z,56.71
2017-10-20T08:40:30.650Z,56.03
2017-10-20T08:41:30.638Z,56.13
2017-10-20T08:42:30.626Z,56.00
2017-10-20T08:43:30.611Z,56.41
2017-10-20T08:44:30.598Z,55.83
2017-10-20T08:45:30.585Z,55.45
2017-10-20T08:46:30.572Z,56.13
2017-10-20T08:47:30.557Z,56.03
2017-10-20T08:48:30.546Z,56.22
2017-10-20T08:49:30.532Z,56.03
2017-10-20T08:50:30.520Z,55.93
2017-10-20T08:51:30.521Z,55.65
2017-10-20T08:52:30.492Z,55.16
2017-10-20T08:53:30.479Z,55.45
2017-10-20T08:54:30.468Z,55.35
2017-10-20T08:55:30.453Z,54.87
2017-10-20T08:56:30.441Z,55.35
2017-10-20T08:57:30.427Z,55.45
2017-10-20T08:58:30.416Z,55.45
2017-10-20T08:59:30.401Z,56.32
2017-10-20T09:00:30.388Z,55.65
2017-10-20T09:01:30.375Z,56.22
2017-10-20T09:02:30.363Z,56.22
2017-10-20T09:03:30.349Z,55.35
2017-10-20T09:04:30.336Z,54.87
2017-10-20T09:05:30.324Z,55.65
2017-10-20T09:06:30.311Z,55.55
2017-10-20T09:07:30.296Z,55.65
2017-10-20T09:08:30.284Z,54.97
2017-10-20T09:09:30.276Z,54.97
2017-10-20T09:10:30.258Z,54.80
2017-10-20T09:11:30.245Z,54.13
2017-10-20T09:12:30.235Z,54.41
2017-10-20T09:13:30.220Z,53.45
2017-10-20T09:14:30.207Z,53.28
2017-10-20T09:15:30.194Z,52.70
2017-10-20T09:16:30.181Z,52.89
2017-10-20T09:17:30.168Z,51.83
2017-10-20T09:18:30.155Z,51.37
2017-10-20T09:19:30.303Z,51.18
2017-10-20T09:20:30.130Z,51.28
2017-10-20T09:21:30.118Z,51.08
2017-10-20T09:22:30.106Z,50.86
2017-10-20T09:23:30.093Z,51.06
2017-10-20T09:24:30.080Z,51.08
2017-10-20T09:25:30.069Z,50.89
2017-10-20T09:26:30.056Z,50.60
2017-10-20T09:27:30.043Z,50.86
2017-10-20T09:28:30.032Z,51.15
2017-10-20T09:29:30.019Z,50.96
2017-10-20T09:30:30.008Z,51.83
2017-10-20T09:31:29.993Z,51.54
2017-10-20T09:32:29.988Z,50.86
2017-10-20T09:33:29.972Z,50.79
2017-10-20T09:34:29.959Z,50.21
2017-10-20T09:35:29.943Z,49.92
2017-10-20T09:36:29.934Z,50.14
2017-10-20T09:37:29.921Z,49.85
2017-10-20T09:38:29.909Z,49.75
2017-10-20T09:39:29.897Z,49.85
2017-10-20T09:40:29.884Z,49.75
2017-10-20T09:41:29.873Z,50.02
2017-10-20T09:42:29.861Z,50.04
2017-10-20T09:43:29.848Z,50.04
2017-10-20T09:44:29.837Z,49.49
2017-10-20T09:45:29.826Z,49.39
2017-10-20T09:46:29.814Z,48.81
2017-10-20T09:47:29.801Z,48.61
2017-10-20T09:48:29.790Z,47.67
2017-10-20T09:49:29.779Z,48.22
2017-10-20T09:50:29.767Z,47.96
2017-10-20T09:51:29.756Z,47.84
2017-10-20T09:52:29.744Z,47.86
2017-10-20T09:53:29.733Z,47.38
2017-10-20T09:54:29.722Z,47.06
2017-10-20T09:55:29.710Z,47.64
2017-10-20T09:56:29.705Z,48.22
2017-10-20T09:57:29.688Z,48.52
2017-10-20T09:58:29.678Z,47.94
2017-10-20T09:59:29.665Z,47.64
2017-10-20T10:00:29.653Z,47.57
2017-10-20T10:01:29.642Z,47.74
2017-10-20T10:02:29.631Z,47.57
2017-10-20T10:03:29.620Z,47.28
2017-10-20T10:04:29.609Z,47.19
2017-10-20T10:05:29.597Z,46.80
2017-10-20T10:06:29.587Z,46.89
2017-10-20T10:07:29.575Z,47.02
2017-10-20T10:08:29.567Z,46.62
2017-10-20T10:09:29.552Z,46.72
2017-10-20T10:10:29.543Z,46.60
2017-10-20T10:11:29.536Z,46.80
2017-10-20T10:12:29.520Z,47.16
2017-10-20T10:13:29.510Z,47.74
2017-10-20T10:14:29.498Z,47.94
2017-10-20T10:15:29.487Z,48.13
2017-10-20T10:16:29.477Z,48.39
2017-10-20T10:17:29.465Z,48.79
2017-10-20T10:18:29.457Z,49.10
2017-10-20T10:19:29.443Z,48.81
2017-10-20T10:20:29.431Z,48.90
2017-10-20T10:21:29.420Z,49.10
2017-10-20T10:22:29.408Z,48.88
2017-10-20T10:23:29.398Z,48.71
2017-10-20T10:24:29.385Z,49.19
2017-10-20T10:25:29.375Z,49.27
2017-10-20T10:26:29.364Z,49.27
2017-10-20T10:27:29.352Z,50.04
2017-10-20T10:28:29.347Z,49.46
2017-10-20T10:29:29.329Z,49.75
2017-10-20T10:30:29.318Z,49.65
2017-10-20T10:31:29.305Z,49.65
2017-10-20T10:32:29.294Z,49.85
2017-10-20T10:33:29.284Z,49.75
2017-10-20T10:34:29.271Z,49.85
2017-10-20T10:35:29.259Z,49.58
2017-10-20T10:36:29.247Z,49.19
2017-10-20T10:37:29.236Z,48.64
2017-10-20T10:38:29.229Z,48.93
2017-10-20T10:39:29.214Z,48.64
2017-10-20T10:40:29.201Z,48.54
2017-10-20T10:41:29.191Z,48.76
2017-10-20T10:42:29.182Z,47.69
2017-10-20T10:43:29.169Z,47.89
2017-10-20T10:44:29.161Z,47.20
2017-10-20T10:45:29.146Z,47.30
2017-10-20T10:46:29.135Z,47.38
2017-10-20T10:47:29.123Z,48.64
2017-10-20T10:48:29.112Z,48.03
2017-10-20T10:49:29.101Z,48.42
2017-10-20T10:50:29.094Z,48.81
2017-10-20T10:51:29.078Z,49.19
2017-10-20T10:52:29.067Z,49.75
2017-10-20T10:53:29.056Z,49.27
2017-10-20T10:54:29.044Z,49.75
2017-10-20T10:55:29.031Z,50.14
2017-10-20T10:56:29.026Z,50.21
2017-10-20T10:57:29.011Z,50.12
2017-10-20T10:58:28.999Z,49.73
2017-10-20T10:59:28.986Z,49.92
2017-10-20T11:00:28.975Z,49.73
2017-10-20T11:01:28.964Z,50.02
2017-10-20T11:02:28.957Z,49.82
2017-10-20T11:03:28.940Z,50.21
2017-10-20T11:04:28.935Z,50.40
2017-10-20T11:05:28.917Z,51.18
2017-10-20T11:06:28.905Z,50.70
2017-10-20T11:07:28.893Z,50.98
2017-10-20T11:08:28.882Z,50.50
2017-10-20T11:09:28.871Z,50.02
2017-10-20T11:10:28.858Z,50.31
2017-10-20T11:11:28.844Z,50.12
2017-10-20T11:12:28.844Z,50.02
2017-10-20T11:13:28.821Z,49.82
2017-10-20T11:14:28.818Z,50.02
2017-10-20T11:15:28.797Z,50.33
2017-10-20T11:16:28.786Z,49.75
2017-10-20T11:17:28.779Z,49.85
2017-10-20T11:18:28.762Z,49.27
2017-10-20T11:19:28.749Z,48.90
2017-10-20T11:20:28.737Z,49.29
2017-10-20T11:21:28.726Z,49.29
2017-10-20T11:22:28.715Z,48.90
2017-10-20T11:23:28.702Z,48.93
2017-10-20T11:24:28.691Z,48.64
2017-10-20T11:25:28.679Z,48.35
2017-10-20T11:26:28.668Z,48.52
2017-10-20T11:27:28.655Z,48.71
2017-10-20T11:28:28.644Z,49.10
2017-10-20T11:29:28.633Z,49.19
2017-10-20T11:30:28.623Z,48.81
2017-10-20T11:31:28.611Z,49.00
2017-10-20T11:32:28.598Z,49.00
2017-10-20T11:33:28.587Z,49.00
2017-10-20T11:34:28.576Z,48.81
2017-10-20T11:35:28.569Z,48.52
2017-10-20T11:36:28.553Z,48.90
2017-10-20T11:37:28.541Z,48.88
2017-10-20T11:38:28.542Z,49.07
2017-10-20T11:39:28.518Z,49.27
2017-10-20T11:40:28.528Z,49.46
2017-10-20T11:41:28.496Z,49.56
2017-10-20T11:42:28.484Z,49.15
2017-10-20T11:43:28.471Z,49.82
2017-10-20T11:44:28.460Z,49.63
2017-10-20T11:45:28.448Z,49.82
2017-10-20T11:46:28.437Z,49.73
2017-10-20T11:47:28.425Z,50.40
2017-10-20T11:48:28.413Z,49.73
2017-10-20T11:49:28.402Z,50.18
2017-10-20T11:50:28.390Z,50.12
2017-10-20T11:51:28.377Z,50.21
2017-10-20T11:52:28.366Z,50.96
2017-10-20T11:53:28.354Z,50.96
2017-10-20T11:54:28.342Z,50.96
2017-10-20T11:55:28.329Z,50.76
2017-10-20T11:56:28.318Z,50.76
2017-10-20T11:57:28.306Z,50.86
2017-10-20T11:58:28.294Z,50.67
2017-10-20T11:59:28.283Z,51.06
2017-10-20T12:00:28.274Z,50.96
2017-10-20T12:01:28.257Z,51.15
2017-10-20T12:02:28.245Z,51.35
2017-10-20T12:03:28.232Z,51.25
2017-10-20T12:04:28.220Z,51.25
2017-10-20T12:05:28.252Z,51.54
2017-10-20T12:06:28.212Z,51.71
2017-10-20T12:07:28.183Z,52.02
2017-10-20T12:08:28.208Z,52.12
2017-10-20T12:09:28.179Z,51.71
2017-10-20T12:10:28.171Z,52.00
2017-10-20T12:11:28.172Z,51.61
2017-10-20T12:12:28.160Z,52.09
2017-10-20T12:13:28.138Z,52.67
2017-10-20T12:14:28.114Z,52.58
2017-10-20T12:15:28.101Z,52.58
2017-10-20T12:16:28.107Z,52.39
2017-10-20T12:17:28.080Z,52.00
2017-10-20T12:18:28.082Z,52.77
2017-10-20T12:19:28.061Z,52.67
2017-10-20T12:20:28.046Z,52.67
2017-10-20T12:21:28.018Z,52.58
2017-10-20T12:22:28.021Z,52.67
2017-10-20T12:23:28.024Z,52.67
2017-10-20T12:24:28.010Z,52.48
2017-10-20T12:25:27.992Z,52.97
2017-10-20T12:26:27.982Z,53.06
2017-10-20T12:27:27.932Z,53.06
2017-10-20T12:28:27.960Z,52.97
2017-10-20T12:29:27.908Z,52.97
2017-10-20T12:30:27.896Z,52.94
2017-10-20T12:31:27.882Z,53.16
2017-10-20T12:32:27.870Z,53.25
2017-10-20T12:33:27.857Z,53.23
2017-10-20T12:34:27.851Z,53.23
2017-10-20T12:35:27.831Z,52.94
2017-10-20T12:36:27.819Z,53.52
2017-10-20T12:37:27.808Z,53.61
2017-10-20T12:38:27.794Z,53.61
2017-10-20T12:39:27.779Z,53.61
2017-10-20T12:40:27.768Z,53.61
2017-10-20T12:41:27.753Z,53.61
2017-10-20T12:42:27.742Z,53.71
2017-10-20T12:43:27.729Z,53.81
2017-10-20T12:44:27.716Z,53.81
2017-10-20T12:45:27.704Z,53.52
2017-10-20T12:46:27.691Z,53.42
2017-10-20T12:47:27.678Z,54.19
2017-10-20T12:48:27.665Z,54.00
2017-10-20T12:49:27.653Z,54.19
2017-10-20T12:50:27.640Z,54.00
2017-10-20T12:51:27.626Z,53.91
2017-10-20T12:52:27.614Z,54.00